LFKC/CLY METAR and TAF weather

Enter ICAO airport designator
Station Type Date Time Source
LFKC METAR 2021/09/27 07:00 UTC NOAA

LFKC 270700Z AUTO 00000KT 9999 FEW011 BKN025 BKN140 22/20 Q1017 BECMG 23010KT


Station Type Date Time Source
LFKC Decoded METAR 2021/09/27 07:00 UTC NOAA

Calvi, France (LFKC) 42-32N 008-48E 58M
Sep 27, 2021 - 03:00 AM EDT / 2021.09.27 0700 UTC
Wind: Calm:0
Visibility: greater than 7 mile(s):0
Sky conditions: mostly cloudy
Temperature: 71 F (22 C)
Dew Point: 68 F (20 C)
Relative Humidity: 88%
Pressure (altimeter): 30.03 in. Hg (1017 hPa)
ob: LFKC 270700Z AUTO 00000KT 9999 FEW011 BKN025 BKN140 22/20 Q1017 BECMG 23010KT
cycle: 7

Station Type Date Time Source
LFKC TAF 2021/09/27 03:42 UTC NOAA

TAF TAF LFKC 270200Z 2703/2803 20006KT 9999 SCT025 BKN140 TX28/2712Z TN17/2803Z
BECMG 2705/2707 FEW030
BECMG 2707/2709 23010KT
BECMG 2720/2722 20005KT

Example: see airport list